Time;durP1;ratioP1;P1;durP2;ratioP2;P2;SDS_P1;SDS_P2;PMS_P1;PMS_P2;Temp;Humidity;BMP_temperature;BMP_pressure;BME280_temperature;BME280_humidity;BME280_pressure;Samples;Min_cycle;Max_cycle;Signal;HPM_P1;HPM_P2
2024/03/28 00:04:48;;;;;;;17.70;8.88;;;8.00;99.90;;;;;;12613327;28;20131;-35
2024/03/28 00:10:50;;;;;;;14.43;6.85;;;7.80;99.90;;;;;;12621050;28;20049;-35
2024/03/28 00:16:51;;;;;;;19.75;9.63;;;7.90;99.90;;;;;;12587847;28;20048;-36
2024/03/28 00:22:52;;;;;;;23.10;11.90;;;7.80;99.90;;;;;;12623952;28;20507;-35
2024/03/28 00:28:53;;;;;;;24.55;12.02;;;7.90;99.90;;;;;;12604733;28;20126;-36
2024/03/28 00:34:54;;;;;;;24.17;11.15;;;7.80;99.90;;;;;;12607178;28;20060;-36
2024/03/28 00:40:55;;;;;;;20.02;8.68;;;7.80;99.90;;;;;;12616004;28;20105;-35
2024/03/28 00:46:56;;;;;;;17.23;8.93;;;7.80;99.90;;;;;;12639433;28;20092;-35
2024/03/28 00:52:57;;;;;;;22.05;10.25;;;7.70;99.90;;;;;;12640889;28;20058;-35
2024/03/28 00:58:57;;;;;;;22.58;9.93;;;7.60;99.90;;;;;;12613245;28;20087;-35
2024/03/28 01:04:58;;;;;;;17.27;8.45;;;7.40;99.90;;;;;;12632106;28;20063;-35
2024/03/28 01:10:59;;;;;;;17.30;7.97;;;7.30;99.90;;;;;;12634602;28;20415;-35
2024/03/28 01:17:00;;;;;;;18.65;7.95;;;7.30;99.90;;;;;;12603096;28;20059;-36
2024/03/28 01:23:02;;;;;;;18.75;8.90;;;7.20;99.90;;;;;;12643222;28;20056;-35
2024/03/28 01:29:02;;;;;;;18.08;8.52;;;7.20;99.90;;;;;;12633174;28;20060;-36
2024/03/28 01:35:04;;;;;;;19.05;9.32;;;7.10;99.90;;;;;;12640968;28;20055;-35
2024/03/28 01:41:05;;;;;;;18.02;8.82;;;7.10;99.90;;;;;;12607048;28;20056;-35
2024/03/28 01:47:06;;;;;;;14.60;8.00;;;7.00;99.90;;;;;;12627873;28;20044;-35
2024/03/28 01:53:08;;;;;;;16.13;7.95;;;7.10;99.90;;;;;;12644719;28;20120;-35
2024/03/28 01:59:10;;;;;;;16.30;8.25;;;7.00;99.90;;;;;;12626638;28;20508;-35
2024/03/28 02:05:11;;;;;;;17.30;8.93;;;7.00;99.90;;;;;;12637697;28;20059;-34
2024/03/28 02:11:12;;;;;;;16.95;9.05;;;7.10;99.90;;;;;;12634771;28;20679;-35
2024/03/28 02:17:13;;;;;;;16.98;8.93;;;7.10;99.90;;;;;;12623907;28;20102;-35
2024/03/28 02:23:19;;;;;;;16.20;8.10;;;7.00;99.90;;;;;;12644230;28;20562;-35
2024/03/28 02:29:19;;;;;;;12.40;7.43;;;7.00;99.90;;;;;;12613712;28;20465;-35
2024/03/28 02:35:20;;;;;;;15.02;8.70;;;6.90;99.90;;;;;;12598127;28;20056;-36
2024/03/28 02:41:21;;;;;;;14.50;7.95;;;7.00;99.90;;;;;;12621390;28;20137;-35
2024/03/28 02:47:22;;;;;;;14.95;8.27;;;6.90;99.90;;;;;;12616115;28;20044;-36
2024/03/28 02:53:23;;;;;;;13.93;8.55;;;6.90;99.90;;;;;;12643198;28;20048;-36
2024/03/28 02:59:24;;;;;;;11.38;8.20;;;6.90;99.90;;;;;;12617572;28;20051;-36
2024/03/28 03:05:25;;;;;;;17.27;9.00;;;6.80;99.90;;;;;;12614656;28;20056;-36
2024/03/28 03:11:26;;;;;;;16.20;9.20;;;6.90;99.90;;;;;;12620063;28;20044;-35
2024/03/28 03:17:28;;;;;;;16.33;9.15;;;6.90;99.90;;;;;;12611047;28;20040;-35
2024/03/28 03:23:37;;;;;;;14.32;8.75;;;6.80;99.90;;;;;;12642904;28;20049;-35
2024/03/28 03:35:57;;;;;;;20.73;10.75;;;6.80;99.90;;;;;;12624058;28;20048;-36
2024/03/28 03:41:58;;;;;;;17.63;9.82;;;6.70;99.90;;;;;;12616384;28;20838;-37
2024/03/28 03:47:59;;;;;;;13.52;8.98;;;6.70;99.90;;;;;;12627816;28;20052;-36
2024/03/28 03:54:00;;;;;;;13.05;9.07;;;6.70;99.90;;;;;;12619541;28;20084;-36
2024/03/28 04:00:01;;;;;;;12.80;8.68;;;6.60;99.90;;;;;;12637954;28;20170;-35
2024/03/28 04:06:02;;;;;;;14.63;8.90;;;6.60;99.90;;;;;;12615522;28;20052;-36
2024/03/28 04:12:03;;;;;;;11.90;8.63;;;6.60;99.90;;;;;;12636889;28;20039;-36
2024/03/28 04:18:05;;;;;;;11.63;8.90;;;6.70;99.90;;;;;;12642591;28;20044;-35
2024/03/28 04:24:06;;;;;;;13.65;8.75;;;6.60;99.90;;;;;;12621575;28;20053;-36
2024/03/28 04:30:07;;;;;;;10.88;8.13;;;6.60;99.90;;;;;;12630167;28;20044;-35
2024/03/28 04:36:08;;;;;;;11.32;8.55;;;6.60;99.90;;;;;;12642659;28;20051;-35
2024/03/28 04:42:09;;;;;;;9.65;8.30;;;6.60;99.90;;;;;;12643619;28;20048;-36
2024/03/28 04:48:09;;;;;;;14.38;9.45;;;6.60;99.90;;;;;;12633379;28;20557;-36
2024/03/28 04:54:10;;;;;;;10.55;9.27;;;6.40;99.90;;;;;;12625083;28;20056;-36
2024/03/28 05:00:13;;;;;;;10.75;8.13;;;6.40;99.90;;;;;;12644157;28;20053;-36
2024/03/28 05:06:14;;;;;;;10.20;7.65;;;6.30;99.90;;;;;;12625848;28;20044;-36
2024/03/28 05:12:14;;;;;;;9.75;8.13;;;6.30;99.90;;;;;;12624132;28;20076;-36
2024/03/28 05:18:15;;;;;;;9.15;7.45;;;6.40;99.90;;;;;;12632599;28;20059;-35
2024/03/28 05:24:16;;;;;;;10.27;7.57;;;6.30;99.90;;;;;;12620583;28;20501;-36
2024/03/28 05:30:17;;;;;;;8.63;6.70;;;6.30;99.90;;;;;;12614952;28;20083;-36
2024/03/28 05:36:18;;;;;;;8.88;7.03;;;6.30;99.90;;;;;;12629245;28;20052;-36
2024/03/28 05:42:19;;;;;;;8.95;6.70;;;6.30;99.90;;;;;;12645697;28;20056;-36
2024/03/28 05:48:20;;;;;;;9.95;6.90;;;6.20;99.90;;;;;;12621337;28;20450;-36
2024/03/28 05:54:22;;;;;;;7.40;6.53;;;6.30;99.90;;;;;;12634711;28;20044;-36
2024/03/28 06:00:23;;;;;;;7.85;6.47;;;6.30;99.90;;;;;;12607158;28;20409;-36
2024/03/28 06:06:24;;;;;;;7.68;6.65;;;6.40;99.90;;;;;;12626535;28;20132;-36
2024/03/28 06:12:25;;;;;;;8.20;7.05;;;6.30;99.90;;;;;;12601862;28;20101;-36
2024/03/28 06:18:27;;;;;;;8.95;6.75;;;6.40;99.90;;;;;;12630275;28;20098;-36
2024/03/28 06:24:28;;;;;;;8.35;6.70;;;6.50;99.90;;;;;;12618208;28;20056;-36
2024/03/28 06:30:30;;;;;;;7.93;7.13;;;6.50;99.90;;;;;;12621565;28;20071;-36
2024/03/28 06:36:31;;;;;;;7.45;6.65;;;6.60;99.90;;;;;;12630642;28;20090;-36
2024/03/28 06:42:32;;;;;;;8.77;7.88;;;6.70;99.90;;;;;;12604175;28;20501;-36
2024/03/28 06:48:33;;;;;;;7.55;6.75;;;6.70;99.90;;;;;;12618632;28;20048;-36
2024/03/28 06:54:34;;;;;;;7.90;7.10;;;6.70;99.90;;;;;;12618031;28;20493;-36
2024/03/28 07:00:35;;;;;;;8.65;7.75;;;6.80;99.90;;;;;;12623531;28;20083;-35
2024/03/28 07:06:36;;;;;;;8.68;7.97;;;7.10;99.90;;;;;;12614264;28;20504;-36
2024/03/28 07:12:37;;;;;;;8.90;8.10;;;7.30;99.90;;;;;;12610710;28;20396;-36
2024/03/28 07:18:38;;;;;;;9.65;8.85;;;7.50;99.90;;;;;;12629351;28;20554;-36
2024/03/28 07:24:39;;;;;;;12.52;11.52;;;7.70;99.90;;;;;;12603873;28;20086;-36
2024/03/28 07:30:40;;;;;;;13.02;12.05;;;7.80;99.90;;;;;;12618994;28;20076;-36
2024/03/28 07:36:41;;;;;;;16.02;14.93;;;8.10;99.90;;;;;;12613187;28;20131;-36
2024/03/28 07:42:42;;;;;;;15.45;14.25;;;8.10;99.90;;;;;;12612616;28;20460;-36
2024/03/28 07:48:43;;;;;;;13.98;12.90;;;8.10;99.90;;;;;;12622879;28;20070;-36
2024/03/28 07:54:46;;;;;;;14.02;13.00;;;8.30;99.90;;;;;;12621302;28;20052;-36
2024/03/28 08:00:47;;;;;;;12.32;11.38;;;8.30;99.90;;;;;;12622825;28;20435;-36
2024/03/28 08:06:48;;;;;;;14.10;13.15;;;8.50;99.90;;;;;;12607439;28;20492;-36
2024/03/28 08:12:49;;;;;;;13.57;12.57;;;8.80;99.90;;;;;;12613716;28;20052;-36
2024/03/28 08:18:50;;;;;;;11.90;11.00;;;9.00;99.90;;;;;;12619145;28;20510;-36
2024/03/28 08:24:51;;;;;;;13.95;12.85;;;9.10;99.90;;;;;;12632563;28;20411;-36
2024/03/28 08:30:52;;;;;;;11.02;10.20;;;9.40;99.90;;;;;;12618698;28;20044;-36
2024/03/28 08:36:53;;;;;;;10.23;9.43;;;9.70;99.90;;;;;;12627577;28;20044;-36
2024/03/28 08:42:54;;;;;;;10.30;9.60;;;10.00;99.90;;;;;;12636861;28;20488;-36
2024/03/28 08:48:55;;;;;;;8.77;7.97;;;10.30;99.90;;;;;;12617314;28;20048;-36
2024/03/28 08:54:56;;;;;;;9.15;8.45;;;10.30;99.90;;;;;;12615113;28;20723;-36
2024/03/28 09:00:57;;;;;;;9.45;8.65;;;10.50;99.90;;;;;;12622034;28;20467;-36
2024/03/28 09:06:58;;;;;;;9.82;9.13;;;10.70;99.90;;;;;;12637492;28;20097;-36
2024/03/28 09:12:59;;;;;;;7.50;7.00;;;10.60;99.90;;;;;;12632511;28;20048;-36
2024/03/28 09:19:00;;;;;;;8.57;7.90;;;10.40;99.90;;;;;;12639693;28;20059;-36
2024/03/28 09:25:02;;;;;;;8.82;8.13;;;10.60;99.90;;;;;;12650558;28;20066;-36
2024/03/28 09:31:03;;;;;;;7.60;7.05;;;10.60;99.90;;;;;;12614002;28;20052;-36
2024/03/28 09:37:05;;;;;;;6.63;6.22;;;10.70;99.90;;;;;;12625299;28;20051;-36
2024/03/28 09:43:06;;;;;;;7.03;6.53;;;10.40;99.90;;;;;;12617515;28;20043;-36
2024/03/28 09:49:08;;;;;;;6.47;5.93;;;10.60;99.90;;;;;;12617696;28;20051;-36
2024/03/28 09:55:11;;;;;;;7.05;6.45;;;10.80;99.90;;;;;;12643186;28;20059;-36
2024/03/28 10:01:13;;;;;;;6.25;5.65;;;10.30;99.90;;;;;;12631020;28;20056;-36
2024/03/28 10:07:16;;;;;;;5.35;4.95;;;10.20;99.90;;;;;;12641690;28;20051;-36
2024/03/28 10:13:18;;;;;;;6.28;5.88;;;11.00;99.90;;;;;;12628893;28;20055;-36
2024/03/28 10:19:21;;;;;;;5.75;5.35;;;10.90;99.90;;;;;;12628862;28;20098;-36
2024/03/28 10:25:23;;;;;;;5.85;5.45;;;10.50;99.90;;;;;;12610782;28;20113;-35
2024/03/28 10:31:26;;;;;;;4.72;4.43;;;10.20;99.90;;;;;;12632220;28;20097;-36
2024/03/28 10:37:29;;;;;;;4.75;4.43;;;9.80;99.90;;;;;;12636280;28;20105;-36
2024/03/28 10:43:31;;;;;;;4.53;4.13;;;9.70;99.90;;;;;;12626615;28;20165;-36
2024/03/28 10:49:42;;;;;;;3.65;3.35;;;9.60;99.90;;;;;;12592288;28;20098;-36
2024/03/28 10:55:45;;;;;;;3.30;3.10;;;9.40;99.90;;;;;;12619210;28;20428;-35
2024/03/28 11:01:47;;;;;;;2.15;1.92;;;9.10;99.90;;;;;;12621843;28;20067;-36
2024/03/28 11:07:50;;;;;;;1.58;1.45;;;8.30;99.90;;;;;;12614730;28;20040;-36
2024/03/28 11:13:52;;;;;;;2.45;1.40;;;8.10;99.90;;;;;;12627695;28;20048;-35
2024/03/28 11:20:03;;;;;;;1.80;1.30;;;7.90;99.90;;;;;;12631334;28;20064;-36
2024/03/28 11:26:07;;;;;;;1.42;1.30;;;7.90;99.90;;;;;;12590428;28;20059;-36
2024/03/28 11:32:08;;;;;;;2.30;1.40;;;7.80;99.90;;;;;;12612339;28;20048;-36
2024/03/28 11:38:13;;;;;;;1.52;1.10;;;7.70;99.90;;;;;;12613807;28;20055;-36
2024/03/28 11:44:18;;;;;;;1.42;1.30;;;7.70;99.90;;;;;;12623382;28;20500;-36
2024/03/28 11:50:19;;;;;;;;;;;7.60;99.90;;;;;;12620789;28;20051;-36
2024/03/28 11:56:23;;;;;;;1.40;1.20;;;7.50;99.90;;;;;;12628652;28;19936;-36
2024/03/28 12:02:23;;;;;;;2.87;1.90;;;7.40;99.90;;;;;;12599486;28;20451;-35
2024/03/28 12:08:27;;;;;;;3.47;1.60;;;7.50;99.90;;;;;;12609365;28;20048;-35
2024/03/28 12:14:28;;;;;;;2.30;2.00;;;7.50;99.90;;;;;;12582167;28;20511;-35
2024/03/28 12:20:30;;;;;;;7.82;1.70;;;7.60;99.90;;;;;;12611283;28;20063;-36
2024/03/28 12:26:31;;;;;;;2.30;2.10;;;7.60;99.90;;;;;;12615128;28;20055;-35
2024/03/28 12:32:32;;;;;;;2.17;1.60;;;7.50;99.90;;;;;;12623218;28;20428;-36
2024/03/28 12:38:34;;;;;;;1.83;1.48;;;7.40;99.90;;;;;;12634937;28;20416;-35
2024/03/28 12:44:35;;;;;;;1.95;1.40;;;7.40;99.90;;;;;;12611603;28;20052;-35
2024/03/28 12:50:40;;;;;;;1.60;1.50;;;7.40;99.90;;;;;;12616779;28;20500;-34
2024/03/28 12:56:41;;;;;;;2.03;1.60;;;7.50;99.90;;;;;;12629608;28;20052;-35
2024/03/28 13:02:42;;;;;;;2.33;2.13;;;7.60;99.90;;;;;;12612871;28;20052;-35
2024/03/28 13:08:43;;;;;;;1.90;1.70;;;7.60;99.90;;;;;;12608728;28;20703;-35
2024/03/28 13:14:46;;;;;;;2.92;2.30;;;7.60;99.90;;;;;;12640085;28;20185;-35
2024/03/28 13:20:47;;;;;;;2.50;2.30;;;7.70;99.90;;;;;;12627497;28;20048;-35
2024/03/28 13:26:48;;;;;;;2.25;1.90;;;7.80;99.90;;;;;;12597668;28;20044;-35
2024/03/28 13:32:49;;;;;;;2.63;2.42;;;7.80;99.90;;;;;;12625964;28;20056;-35
2024/03/28 13:38:50;;;;;;;4.05;3.40;;;7.80;99.90;;;;;;12634095;28;20056;-35
2024/03/28 13:44:52;;;;;;;3.35;3.05;;;7.90;99.90;;;;;;12623644;28;20071;-36
2024/03/28 13:50:53;;;;;;;2.63;1.70;;;7.80;99.90;;;;;;12601403;28;20048;-35
2024/03/28 13:56:54;;;;;;;1.67;1.50;;;7.60;99.90;;;;;;12646551;28;20048;-35
2024/03/28 14:02:54;;;;;;;1.50;1.30;;;7.30;99.90;;;;;;12619739;28;20436;-35
2024/03/28 14:08:55;;;;;;;1.50;1.40;;;7.40;99.90;;;;;;12601288;28;20051;-35
2024/03/28 14:14:56;;;;;;;1.88;1.40;;;7.60;99.90;;;;;;12622942;28;20048;-35
2024/03/28 14:21:00;;;;;;;2.22;1.40;;;8.10;99.90;;;;;;12626156;28;20066;-35
2024/03/28 14:27:00;;;;;;;3.50;2.00;;;8.40;99.90;;;;;;12631140;28;20052;-35
2024/03/28 14:33:01;;;;;;;2.58;2.17;;;8.70;99.90;;;;;;12613005;28;20412;-35
2024/03/28 14:39:06;;;;;;;2.28;2.10;;;9.00;99.90;;;;;;12589337;28;20556;-36
2024/03/28 14:45:08;;;;;;;3.35;1.90;;;9.10;99.90;;;;;;12646313;28;20056;-36
2024/03/28 14:51:09;;;;;;;2.70;2.50;;;9.30;99.90;;;;;;12612829;28;20746;-36
2024/03/28 14:57:10;;;;;;;3.53;2.95;;;9.40;99.90;;;;;;12642830;28;20051;-36
2024/03/28 15:03:11;;;;;;;4.38;4.07;;;9.40;99.90;;;;;;12624277;28;20420;-37
2024/03/28 15:09:11;;;;;;;4.18;3.72;;;9.50;99.90;;;;;;12613380;28;20048;-36
2024/03/28 15:15:12;;;;;;;5.75;4.88;;;9.80;99.90;;;;;;12602994;28;20055;-36
2024/03/28 15:21:14;;;;;;;5.35;4.95;;;9.90;99.90;;;;;;12610075;28;21307;-36
2024/03/28 15:27:15;;;;;;;6.55;6.15;;;10.30;99.90;;;;;;12616599;28;20036;-36
2024/03/28 15:33:16;;;;;;;6.88;6.22;;;10.20;99.90;;;;;;12608922;28;20049;-35
2024/03/28 15:39:21;;;;;;;5.85;5.35;;;10.00;99.90;;;;;;12606310;28;20056;-35
2024/03/28 15:45:22;;;;;;;7.30;5.82;;;9.90;99.90;;;;;;12621249;28;20048;-35
2024/03/28 15:51:23;;;;;;;5.60;5.10;;;9.60;99.90;;;;;;12624129;28;20040;-35
2024/03/28 15:57:24;;;;;;;3.97;3.60;;;8.70;99.90;;;;;;12622994;28;20488;-35
2024/03/28 16:03:25;;;;;;;3.75;2.85;;;8.20;99.90;;;;;;12631449;28;20453;-35
2024/03/28 16:09:27;;;;;;;2.90;2.60;;;8.00;99.90;;;;;;12623294;28;20121;-36
2024/03/28 16:15:27;;;;;;;4.43;2.25;;;7.90;99.90;;;;;;12602895;28;20036;-35
2024/03/28 16:21:28;;;;;;;2.20;1.90;;;7.90;99.90;;;;;;12632972;28;20075;-36
2024/03/28 16:27:30;;;;;;;3.78;2.83;;;8.40;99.90;;;;;;12612585;28;20044;-36
2024/03/28 16:33:31;;;;;;;3.20;2.90;;;9.00;99.90;;;;;;12616576;28;20146;-35
2024/03/28 16:39:32;;;;;;;3.80;3.50;;;9.30;99.90;;;;;;12620980;28;20059;-35
2024/03/28 16:45:33;;;;;;;4.20;3.80;;;9.50;99.90;;;;;;12624892;28;20056;-36
2024/03/28 16:51:33;;;;;;;4.43;4.13;;;9.40;99.90;;;;;;12619504;28;20495;-36
2024/03/28 16:57:34;;;;;;;3.95;3.75;;;9.50;99.90;;;;;;12619801;28;20512;-36
2024/03/28 17:03:36;;;;;;;4.00;3.58;;;9.00;99.90;;;;;;12628248;28;20488;-35
2024/03/28 17:09:37;;;;;;;4.03;3.38;;;8.90;99.90;;;;;;12633412;28;20097;-35
2024/03/28 17:15:39;;;;;;;3.22;2.70;;;8.80;99.90;;;;;;12628974;28;20457;-35
2024/03/28 17:21:40;;;;;;;2.55;2.33;;;8.80;99.90;;;;;;12635418;28;20064;-35
2024/03/28 17:27:41;;;;;;;2.85;2.53;;;8.70;99.90;;;;;;12608758;28;20455;-35
2024/03/28 17:33:42;;;;;;;3.17;2.90;;;8.60;99.90;;;;;;12624540;28;20459;-35
2024/03/28 17:39:43;;;;;;;2.50;2.30;;;8.70;99.90;;;;;;12632647;28;20415;-35
2024/03/28 17:45:44;;;;;;;2.58;2.25;;;8.70;99.90;;;;;;12644614;28;20055;-35
2024/03/28 17:51:45;;;;;;;3.03;2.72;;;8.70;99.90;;;;;;12611073;28;20050;-35
2024/03/28 17:57:46;;;;;;;3.60;2.88;;;8.70;99.90;;;;;;12637653;28;20052;-36
2024/03/28 18:03:47;;;;;;;4.65;2.90;;;8.60;99.90;;;;;;12613016;28;20432;-35
2024/03/28 18:09:48;;;;;;;2.58;2.38;;;8.60;99.90;;;;;;12632817;28;20047;-35
2024/03/28 18:15:49;;;;;;;3.97;2.63;;;8.70;99.90;;;;;;12624463;28;20060;-35
2024/03/28 18:21:51;;;;;;;5.13;3.00;;;8.80;99.90;;;;;;12625216;28;20055;-35
2024/03/28 18:27:52;;;;;;;3.65;2.60;;;8.80;99.90;;;;;;12612278;28;20095;-35
2024/03/28 18:33:53;;;;;;;2.70;2.38;;;8.90;99.90;;;;;;12612315;28;20048;-35
2024/03/28 18:39:54;;;;;;;2.50;2.30;;;9.00;99.90;;;;;;12624603;28;20075;-35
2024/03/28 18:45:56;;;;;;;2.00;1.90;;;8.50;99.90;;;;;;12610697;28;20075;-35
2024/03/28 18:51:57;;;;;;;2.17;1.60;;;8.20;99.90;;;;;;12608488;28;20044;-35
2024/03/28 18:57:58;;;;;;;2.65;1.60;;;8.00;99.90;;;;;;12626449;28;20052;-35
2024/03/28 19:03:58;;;;;;;2.58;1.98;;;8.00;99.90;;;;;;12627139;28;20064;-36
2024/03/28 19:09:59;;;;;;;1.80;1.70;;;8.00;99.90;;;;;;12622417;28;20451;-35
2024/03/28 19:16:00;;;;;;;1.60;1.50;;;7.90;99.90;;;;;;12622976;28;20728;-35
2024/03/28 19:22:02;;;;;;;1.63;1.52;;;7.90;99.90;;;;;;12623465;28;20140;-36
2024/03/28 19:28:07;;;;;;;2.65;1.50;;;7.90;99.90;;;;;;12604898;28;20048;-35
2024/03/28 19:34:08;;;;;;;3.15;1.58;;;7.80;99.90;;;;;;12619327;28;20048;-35
2024/03/28 19:40:09;;;;;;;2.95;2.10;;;7.80;99.90;;;;;;12624578;28;20044;-35
2024/03/28 19:46:10;;;;;;;1.80;1.70;;;7.80;99.90;;;;;;12595481;28;20048;-35
2024/03/28 19:52:14;;;;;;;2.65;1.88;;;7.80;99.90;;;;;;12619465;28;20051;-34
2024/03/28 19:58:15;;;;;;;1.80;1.57;;;7.60;99.90;;;;;;12615734;28;20060;-35
2024/03/28 20:04:16;;;;;;;3.13;1.70;;;7.50;99.90;;;;;;12604776;28;20079;-35
2024/03/28 20:10:17;;;;;;;1.60;1.50;;;7.40;99.90;;;;;;12618988;28;20504;-35
2024/03/28 20:16:18;;;;;;;1.65;1.40;;;7.30;99.90;;;;;;12636396;28;20048;-36
2024/03/28 20:22:19;;;;;;;4.03;1.60;;;7.30;99.90;;;;;;12604936;28;20052;-36
2024/03/28 20:28:20;;;;;;;1.40;1.30;;;7.30;99.90;;;;;;12615172;28;20100;-36
2024/03/28 20:34:21;;;;;;;1.98;1.30;;;7.30;99.90;;;;;;12627007;28;20101;-35
2024/03/28 20:40:23;;;;;;;1.95;1.80;;;7.40;99.90;;;;;;12623843;28;20057;-35
2024/03/28 20:46:27;;;;;;;2.05;1.48;;;7.50;99.90;;;;;;12605149;28;20045;-36
2024/03/28 20:52:28;;;;;;;3.50;1.70;;;7.50;99.90;;;;;;12618405;28;20438;-35
2024/03/28 20:58:28;;;;;;;1.50;1.40;;;7.50;99.90;;;;;;12644860;28;20055;-35
2024/03/28 21:04:32;;;;;;;5.75;1.60;;;7.40;99.90;;;;;;12606473;28;20051;-35
2024/03/28 21:10:45;;;;;;;2.92;1.48;;;7.40;99.90;;;;;;12627070;28;20055;-42
2024/03/28 21:16:45;;;;;;;2.90;1.40;;;7.40;99.90;;;;;;12631513;28;20052;-35
2024/03/28 21:22:46;;;;;;;2.03;1.50;;;7.50;99.90;;;;;;12623466;28;20127;-35
2024/03/28 21:28:47;;;;;;;4.78;1.50;;;7.60;99.90;;;;;;12614347;28;20059;-35
2024/03/28 21:34:48;;;;;;;2.58;1.50;;;7.60;99.90;;;;;;12624083;28;20060;-35
2024/03/28 21:40:53;;;;;;;2.28;1.58;;;7.70;99.90;;;;;;12622913;28;20508;-35
2024/03/28 21:46:54;;;;;;;2.75;1.40;;;7.60;99.90;;;;;;12622038;28;20043;-35
2024/03/28 21:52:55;;;;;;;1.98;1.30;;;7.60;99.90;;;;;;12619309;28;20062;-35
2024/03/28 21:58:56;;;;;;;2.92;1.58;;;7.60;99.90;;;;;;12638614;28;20506;-35
2024/03/28 22:04:57;;;;;;;5.70;1.60;;;7.60;99.90;;;;;;12636983;28;20059;-35
2024/03/28 22:11:07;;;;;;;4.82;1.58;;;7.70;99.90;;;;;;12638168;28;20051;-36
2024/03/28 22:17:08;;;;;;;3.65;1.90;;;7.60;99.90;;;;;;12635649;28;20048;-35
2024/03/28 22:23:09;;;;;;;5.43;1.67;;;7.70;99.90;;;;;;12630846;28;20056;-35
2024/03/28 22:29:11;;;;;;;3.28;2.08;;;7.70;99.90;;;;;;12653535;22;20064;-79
2024/03/28 22:35:12;;;;;;;3.10;1.50;;;7.80;99.90;;;;;;12656137;28;20099;-76
2024/03/28 22:41:15;;;;;;;3.80;1.55;;;7.70;99.90;;;;;;12642897;28;20055;-82
2024/03/28 22:47:16;;;;;;;1.58;1.48;;;7.70;99.90;;;;;;12631241;28;20062;-77
2024/03/28 22:53:16;;;;;;;3.95;1.40;;;7.80;99.90;;;;;;12645425;28;20071;-77
2024/03/28 22:59:18;;;;;;;3.75;1.95;;;7.80;99.90;;;;;;12636875;28;20057;-78
2024/03/28 23:05:19;;;;;;;4.05;1.50;;;7.80;99.90;;;;;;12600548;28;20055;-79
2024/03/28 23:11:19;;;;;;;2.50;1.55;;;7.70;99.90;;;;;;12587092;28;20040;-79
2024/03/28 23:17:20;;;;;;;2.55;1.45;;;7.80;99.90;;;;;;12590488;28;20492;-78
2024/03/28 23:23:21;;;;;;;1.98;1.30;;;7.70;99.90;;;;;;12588629;28;20109;-78
2024/03/28 23:29:28;;;;;;;3.08;1.45;;;7.70;99.90;;;;;;12598927;28;20044;-79
2024/03/28 23:35:28;;;;;;;2.83;1.52;;;7.60;99.90;;;;;;12586408;28;20055;-80
2024/03/28 23:41:29;;;;;;;1.85;1.52;;;7.50;99.90;;;;;;12608266;28;20052;-79
2024/03/28 23:47:30;;;;;;;5.05;1.67;;;7.50;99.90;;;;;;12592017;28;20052;-80
2024/03/28 23:53:31;;;;;;;2.40;1.63;;;7.60;99.90;;;;;;12588311;28;20123;-79
2024/03/28 23:59:32;;;;;;;2.45;1.40;;;7.50;99.90;;;;;;12599079;28;20131;-80
